Michipicoten — CFG8060 — position and weather

sailwx.info

Track history (hours):
 
Tides and Currents Weather Stations Pressure Air Temp Water Temp Dewpoint Dewpoint Depression Visibility Wind Speed Wind Dir Waves Ship Positions

Michipicoten

Last reported at 2014-Nov-23 20:33 UTC. Time now 2014-Nov-26 00:25 UTC.
Position N 45°38' W 084°07'.

Length 212 m.

Type: Ship. MMSI: 316002501.

Date/timePositionNaut miles runAvg speedWind from/ knotsBaromVisibWave heightAir tempDewpointWater temp
2014-Nov-23 20:33N 45°38' W 084°07'1212.1
2014-Nov-23 19:33N 45°41' W 084°24'1312.6
2014-Nov-23 18:33N 45°47' W 084°40'1211.9
2014-Nov-23 17:33N 45°50' W 084°56'1312.6
2014-Nov-23 16:33N 45°52' W 085°14'1312.7
2014-Nov-23 15:33N 45°53' W 085°33'1312.7
2014-Nov-23 14:33N 45°55' W 085°51'3 2.9
2014-Nov-23 13:33N 45°58' W 085°53'0 0.4
2014-Nov-23 12:33N 45°58' W 085°52'0 0.0
2014-Nov-23 11:33N 45°58' W 085°52'0 0.1
2014-Nov-23 10:33N 45°58' W 085°52'0 0.1
2014-Nov-23 09:33N 45°58' W 085°52'0 0.0
2014-Nov-23 08:33N 45°58' W 085°52'0 0.0
2014-Nov-23 07:33N 45°58' W 085°52'0 0.0
2014-Nov-23 06:33N 45°58' W 085°52'0 0.0
2014-Nov-23 05:33N 45°58' W 085°52'0 0.0
2014-Nov-23 04:33N 45°58' W 085°52'0 0.0
2014-Nov-23 03:33N 45°58' W 085°52'0 0.0
2014-Nov-23 02:33N 45°58' W 085°52'0 0.0
2014-Nov-23 01:33N 45°58' W 085°52'0 0.0
2014-Nov-23 00:33N 45°58' W 085°52'0 0.1
2014-Nov-22 23:33N 45°58' W 085°52'2 1.9
2014-Nov-22 22:33N 45°56' W 085°53'9 9.4
2014-Nov-22 21:33N 45°54' W 085°40'5 4.8
2014-Nov-22 20:33N 45°53' W 085°33'5 4.9
2014-Nov-22 19:33N 45°53' W 085°26'4 4.2
2014-Nov-22 18:33N 45°52' W 085°20'3 3.5
2014-Nov-22 17:33N 45°52' W 085°15'4 3.5
2014-Nov-22 16:33N 45°51' W 085°10'4 3.5
2014-Nov-22 15:33N 45°51' W 085°05'3 2.7
2014-Nov-22 14:33N 45°51' W 085°01'3 2.5
2014-Nov-22 13:33N 45°50' W 084°57'2 2.4
2014-Nov-22 12:33N 45°50' W 084°54'3 2.7
2014-Nov-22 11:33N 45°50' W 084°50'4 3.8
2014-Nov-22 10:33N 45°49' W 084°45'5 5.3
2014-Nov-22 09:33N 45°50' W 084°37'1212.1
2014-Nov-22 08:33N 45°52' W 084°20'1312.7
2014-Nov-22 07:33N 45°55' W 084°03'  
Track history (hours):
 
Tides and Currents Weather Stations Pressure Air Temp Water Temp Dewpoint Dewpoint Depression Visibility Wind Speed Wind Dir Waves Ship Positions

Michipicoten

Last reported at 2014-Nov-23 20:33 UTC. Time now 2014-Nov-26 00:25 UTC.
Position N 45°38' W 084°07'.

Length 212 m.

Type: Ship. MMSI: 316002501.

Date/timePositionNaut miles runAvg speedWind from/ knotsBaromVisibWave heightAir tempDewpointWater temp
2014-Nov-23 20:33N 45°38' W 084°07'1212.1
2014-Nov-23 19:33N 45°41' W 084°24'1312.6
2014-Nov-23 18:33N 45°47' W 084°40'1211.9
2014-Nov-23 17:33N 45°50' W 084°56'1312.6
2014-Nov-23 16:33N 45°52' W 085°14'1312.7
2014-Nov-23 15:33N 45°53' W 085°33'1312.7
2014-Nov-23 14:33N 45°55' W 085°51'3 2.9
2014-Nov-23 13:33N 45°58' W 085°53'0 0.4
2014-Nov-23 12:33N 45°58' W 085°52'0 0.0
2014-Nov-23 11:33N 45°58' W 085°52'0 0.1
2014-Nov-23 10:33N 45°58' W 085°52'0 0.1
2014-Nov-23 09:33N 45°58' W 085°52'0 0.0
2014-Nov-23 08:33N 45°58' W 085°52'0 0.0
2014-Nov-23 07:33N 45°58' W 085°52'0 0.0
2014-Nov-23 06:33N 45°58' W 085°52'0 0.0
2014-Nov-23 05:33N 45°58' W 085°52'0 0.0
2014-Nov-23 04:33N 45°58' W 085°52'0 0.0
2014-Nov-23 03:33N 45°58' W 085°52'0 0.0
2014-Nov-23 02:33N 45°58' W 085°52'0 0.0
2014-Nov-23 01:33N 45°58' W 085°52'0 0.0
2014-Nov-23 00:33N 45°58' W 085°52'0 0.1
2014-Nov-22 23:33N 45°58' W 085°52'2 1.9
2014-Nov-22 22:33N 45°56' W 085°53'9 9.4
2014-Nov-22 21:33N 45°54' W 085°40'5 4.8
2014-Nov-22 20:33N 45°53' W 085°33'5 4.9
2014-Nov-22 19:33N 45°53' W 085°26'4 4.2
2014-Nov-22 18:33N 45°52' W 085°20'3 3.5
2014-Nov-22 17:33N 45°52' W 085°15'4 3.5
2014-Nov-22 16:33N 45°51' W 085°10'4 3.5
2014-Nov-22 15:33N 45°51' W 085°05'3 2.7
2014-Nov-22 14:33N 45°51' W 085°01'3 2.5
2014-Nov-22 13:33N 45°50' W 084°57'2 2.4
2014-Nov-22 12:33N 45°50' W 084°54'3 2.7
2014-Nov-22 11:33N 45°50' W 084°50'4 3.8
2014-Nov-22 10:33N 45°49' W 084°45'5 5.3
2014-Nov-22 09:33N 45°50' W 084°37'1212.1
2014-Nov-22 08:33N 45°52' W 084°20'1312.7
2014-Nov-22 07:33N 45°55' W 084°03'  

Dump ship's entire track history